Time;durP1;ratioP1;P1;durP2;ratioP2;P2;SDS_P1;SDS_P2;PMS_P1;PMS_P2;Temp;Humidity;BMP_temperature;BMP_pressure;BME280_temperature;BME280_humidity;BME280_pressure;Samples;Min_cycle;Max_cycle;Signal;HPM_P1;HPM_P2
2022/04/11 00:02:02;;;;;;;1.25;1.15;;;;;;;;;;5108911;28;20505;-57
2022/04/11 00:04:30;;;;;;;1.20;1.10;;;;;;;;;;5100055;28;20214;-57
2022/04/11 00:06:57;;;;;;;1.30;1.15;;;;;;;;;;5099763;28;20210;-57
2022/04/11 00:09:24;;;;;;;1.20;1.10;;;;;;;;;;5100337;28;20203;-58
2022/04/11 00:11:52;;;;;;;1.20;1.10;;;;;;;;;;5099694;28;20239;-58
2022/04/11 00:14:19;;;;;;;1.20;1.10;;;;;;;;;;5100178;28;20211;-58
2022/04/11 00:16:47;;;;;;;1.15;1.05;;;;;;;;;;5099940;28;20210;-57
2022/04/11 00:19:16;;;;;;;1.23;1.17;;;;;;;;;;5099006;28;20594;-58
2022/04/11 00:21:43;;;;;;;1.27;1.17;;;;;;;;;;5099724;28;20204;-58
2022/04/11 00:24:11;;;;;;;0.93;0.93;;;;;;;;;;5099199;28;20214;-57
2022/04/11 00:26:38;;;;;;;1.20;1.10;;;;;;;;;;5099301;28;20203;-58
2022/04/11 00:29:06;;;;;;;1.00;1.00;;;;;;;;;;5099553;28;20204;-58
2022/04/11 00:31:33;;;;;;;1.10;1.00;;;;;;;;;;5113211;28;20222;-57
2022/04/11 00:34:00;;;;;;;1.25;1.15;;;;;;;;;;5106503;28;20195;-57
2022/04/11 00:36:29;;;;;;;1.10;0.98;;;;;;;;;;5104500;28;20199;-57
2022/04/11 00:38:56;;;;;;;2.28;1.13;;;;;;;;;;5101277;28;20195;-57
2022/04/11 00:41:24;;;;;;;1.15;1.10;;;;;;;;;;5118596;28;20444;-57
2022/04/11 00:43:52;;;;;;;1.15;1.05;;;;;;;;;;5119558;28;20207;-57
2022/04/11 00:46:20;;;;;;;1.17;1.10;;;;;;;;;;5113026;28;20246;-57
2022/04/11 00:48:47;;;;;;;1.25;1.15;;;;;;;;;;5098817;28;20572;-57
2022/04/11 00:51:17;;;;;;;1.10;1.00;;;;;;;;;;5099642;28;20234;-57
2022/04/11 00:53:46;;;;;;;1.23;1.13;;;;;;;;;;5098932;28;20199;-58
2022/04/11 00:56:14;;;;;;;1.33;1.10;;;;;;;;;;5113859;28;20203;-58
2022/04/11 00:58:42;;;;;;;1.40;1.30;;;;;;;;;;5119293;27;20202;-58
2022/04/11 01:01:10;;;;;;;1.20;1.10;;;;;;;;;;5119310;28;20196;-58
2022/04/11 01:03:38;;;;;;;1.20;1.10;;;;;;;;;;5111471;28;20572;-58
2022/04/11 01:06:07;;;;;;;1.10;1.00;;;;;;;;;;5119461;28;20627;-58
2022/04/11 01:08:34;;;;;;;1.10;1.00;;;;;;;;;;5107271;28;20269;-57
2022/04/11 01:11:04;;;;;;;1.10;1.00;;;;;;;;;;5119168;28;20231;-57
2022/04/11 01:13:31;;;;;;;1.25;1.15;;;;;;;;;;5118253;28;20501;-57
2022/04/11 01:16:00;;;;;;;1.20;1.10;;;;;;;;;;5099111;28;20241;-57
2022/04/11 01:18:28;;;;;;;1.00;1.00;;;;;;;;;;5106072;28;20293;-58
2022/04/11 01:20:55;;;;;;;1.20;1.10;;;;;;;;;;5119032;28;20186;-58
2022/04/11 01:23:24;;;;;;;1.17;1.05;;;;;;;;;;5119190;28;20491;-57
2022/04/11 01:25:52;;;;;;;1.08;0.90;;;;;;;;;;5098832;28;20204;-58
2022/04/11 01:28:20;;;;;;;0.88;0.88;;;;;;;;;;5099514;28;20203;-57
2022/04/11 01:30:47;;;;;;;1.10;0.98;;;;;;;;;;5097847;28;20223;-57
2022/04/11 01:33:16;;;;;;;1.30;1.20;;;;;;;;;;5103282;28;20203;-57
2022/04/11 01:35:43;;;;;;;1.30;1.20;;;;;;;;;;5118112;28;20199;-57
2022/04/11 01:38:10;;;;;;;1.20;1.10;;;;;;;;;;5118333;28;20199;-57
2022/04/11 01:40:47;;;;;;;1.20;1.10;;;;;;;;;;5104134;28;20202;-57
2022/04/11 01:43:15;;;;;;;1.15;1.10;;;;;;;;;;5098429;28;20204;-56
2022/04/11 01:45:42;;;;;;;1.00;1.00;;;;;;;;;;5098936;28;20246;-58
2022/04/11 01:48:10;;;;;;;1.20;1.10;;;;;;;;;;5098411;28;20200;-57
2022/04/11 01:50:37;;;;;;;0.80;0.80;;;;;;;;;;5115314;28;20223;-59
2022/04/11 01:53:08;;;;;;;1.23;1.08;;;;;;;;;;5117405;28;20203;-57
2022/04/11 01:55:35;;;;;;;1.38;1.17;;;;;;;;;;5118145;28;20498;-57
2022/04/11 01:58:05;;;;;;;1.30;1.20;;;;;;;;;;5118417;28;20202;-58
2022/04/11 02:00:32;;;;;;;0.98;0.90;;;;;;;;;;5115582;28;20199;-58
2022/04/11 02:03:00;;;;;;;1.40;1.30;;;;;;;;;;5098287;28;20488;-57
2022/04/11 02:05:27;;;;;;;1.20;1.10;;;;;;;;;;5098188;28;20195;-57
2022/04/11 02:07:55;;;;;;;1.27;1.17;;;;;;;;;;5097546;28;20214;-57
2022/04/11 02:10:23;;;;;;;1.27;1.17;;;;;;;;;;5098524;28;20214;-57
2022/04/11 02:12:50;;;;;;;1.30;1.10;;;;;;;;;;5098619;28;20204;-57
2022/04/11 02:15:19;;;;;;;1.20;1.10;;;;;;;;;;5097898;28;20203;-57
2022/04/11 02:17:47;;;;;;;1.20;1.10;;;;;;;;;;5097951;28;20195;-57
2022/04/11 02:20:15;;;;;;;1.20;1.10;;;;;;;;;;5098216;28;20310;-57
2022/04/11 02:22:46;;;;;;;1.48;1.20;;;;;;;;;;5098056;28;20536;-57
2022/04/11 02:25:14;;;;;;;1.08;0.98;;;;;;;;;;5098062;28;20203;-57
2022/04/11 02:27:42;;;;;;;1.20;1.10;;;;;;;;;;5098221;28;20242;-57
2022/04/11 02:30:10;;;;;;;1.13;1.02;;;;;;;;;;5097987;28;20790;-56
2022/04/11 02:32:39;;;;;;;1.02;1.02;;;;;;;;;;5098534;28;20500;-56
2022/04/11 02:35:07;;;;;;;1.10;1.00;;;;;;;;;;5097991;28;20207;-56
2022/04/11 02:37:35;;;;;;;1.50;1.40;;;;;;;;;;5097842;28;20260;-56
2022/04/11 02:40:02;;;;;;;1.20;1.10;;;;;;;;;;5103057;28;20194;-57
2022/04/11 02:42:30;;;;;;;1.10;1.00;;;;;;;;;;5117798;28;20628;-56
2022/04/11 02:44:58;;;;;;;1.45;1.35;;;;;;;;;;5108441;28;20700;-57
2022/04/11 02:47:25;;;;;;;1.15;1.10;;;;;;;;;;5097439;28;20203;-57
2022/04/11 02:49:54;;;;;;;1.20;1.10;;;;;;;;;;5097512;28;20222;-58
2022/04/11 02:52:21;;;;;;;1.20;1.10;;;;;;;;;;5097133;28;20610;-56
2022/04/11 02:54:49;;;;;;;1.23;1.13;;;;;;;;;;5104529;28;20596;-57
2022/04/11 02:57:16;;;;;;;1.20;1.10;;;;;;;;;;5109971;28;20200;-56
2022/04/11 02:59:44;;;;;;;1.20;1.10;;;;;;;;;;5097266;28;20204;-57
2022/04/11 03:02:11;;;;;;;1.30;1.20;;;;;;;;;;5096520;28;20211;-57
2022/04/11 03:04:38;;;;;;;1.20;1.10;;;;;;;;;;5097661;28;20576;-57
2022/04/11 03:07:07;;;;;;;1.30;1.20;;;;;;;;;;5106417;28;20200;-57
2022/04/11 03:09:35;;;;;;;1.23;1.13;;;;;;;;;;5096814;28;20579;-57
2022/04/11 03:12:02;;;;;;;1.52;1.17;;;;;;;;;;5107212;28;20276;-57
2022/04/11 03:14:30;;;;;;;1.00;1.00;;;;;;;;;;5120359;28;20210;-57
2022/04/11 03:16:57;;;;;;;1.17;1.08;;;;;;;;;;5120674;27;20210;-57
2022/04/11 03:19:25;;;;;;;1.00;1.00;;;;;;;;;;5100458;28;20433;-56
2022/04/11 03:21:52;;;;;;;1.27;1.17;;;;;;;;;;5100289;28;20299;-57
2022/04/11 03:24:21;;;;;;;1.08;1.00;;;;;;;;;;5099745;28;20196;-57
2022/04/11 03:26:48;;;;;;;1.10;1.00;;;;;;;;;;5100004;28;20204;-57
2022/04/11 03:29:16;;;;;;;1.05;1.02;;;;;;;;;;5118931;28;20200;-57
2022/04/11 03:31:43;;;;;;;1.20;1.10;;;;;;;;;;5120614;28;20226;-57
2022/04/11 03:34:10;;;;;;;1.17;1.08;;;;;;;;;;5117265;28;20213;-57
2022/04/11 03:36:38;;;;;;;1.27;1.17;;;;;;;;;;5099783;28;20196;-57
2022/04/11 03:39:05;;;;;;;1.10;1.00;;;;;;;;;;5108734;28;20205;-57
2022/04/11 03:41:34;;;;;;;1.10;1.10;;;;;;;;;;5106901;28;20196;-57
2022/04/11 03:44:01;;;;;;;1.27;1.15;;;;;;;;;;5099251;28;20215;-56
2022/04/11 03:46:29;;;;;;;1.10;1.02;;;;;;;;;;5113389;28;20233;-56
2022/04/11 03:48:57;;;;;;;1.50;1.40;;;;;;;;;;5118975;28;20694;-57
2022/04/11 03:51:24;;;;;;;0.90;0.90;;;;;;;;;;5119618;28;20223;-57
2022/04/11 03:53:51;;;;;;;1.13;1.10;;;;;;;;;;5119158;28;20207;-58
2022/04/11 03:56:19;;;;;;;1.13;1.02;;;;;;;;;;5120032;28;20442;-57
2022/04/11 03:58:48;;;;;;;1.15;1.05;;;;;;;;;;5119220;28;20195;-57
2022/04/11 04:01:15;;;;;;;1.02;1.00;;;;;;;;;;5102298;28;20211;-57
2022/04/11 04:03:43;;;;;;;0.90;0.90;;;;;;;;;;5099189;28;20203;-57
2022/04/11 04:06:11;;;;;;;1.17;1.08;;;;;;;;;;5098521;28;20207;-56
2022/04/11 04:08:39;;;;;;;1.23;1.13;;;;;;;;;;5100063;28;20211;-57
2022/04/11 04:11:08;;;;;;;1.40;1.30;;;;;;;;;;5099360;28;20214;-56
2022/04/11 04:13:35;;;;;;;1.15;1.00;;;;;;;;;;5098553;28;20203;-56
2022/04/11 04:16:04;;;;;;;1.10;1.00;;;;;;;;;;5098822;28;20203;-56
2022/04/11 04:18:32;;;;;;;1.10;1.10;;;;;;;;;;5097376;28;20200;-57
2022/04/11 04:21:00;;;;;;;1.05;0.95;;;;;;;;;;5097926;28;20214;-58
2022/04/11 04:23:28;;;;;;;1.23;1.02;;;;;;;;;;5097533;28;20199;-58
2022/04/11 04:25:56;;;;;;;1.27;1.15;;;;;;;;;;5097496;28;20216;-59
2022/04/11 04:28:23;;;;;;;1.20;1.05;;;;;;;;;;5097614;28;20203;-58
2022/04/11 04:30:51;;;;;;;1.35;1.25;;;;;;;;;;5097263;28;20472;-56
2022/04/11 04:33:20;;;;;;;1.20;1.10;;;;;;;;;;5097208;28;20223;-56
2022/04/11 04:35:48;;;;;;;1.33;1.23;;;;;;;;;;5096665;28;20204;-56
2022/04/11 04:38:15;;;;;;;2.08;1.20;;;;;;;;;;5104502;28;20224;-57
2022/04/11 04:40:42;;;;;;;1.13;1.02;;;;;;;;;;5100928;28;20195;-57
2022/04/11 04:43:10;;;;;;;1.40;1.27;;;;;;;;;;5095916;28;20211;-56
2022/04/11 04:45:37;;;;;;;1.40;1.30;;;;;;;;;;5095450;28;20513;-56
2022/04/11 04:48:06;;;;;;;1.33;1.23;;;;;;;;;;5115519;28;20210;-56
2022/04/11 04:50:34;;;;;;;1.15;1.05;;;;;;;;;;5114540;28;20213;-56
2022/04/11 04:53:02;;;;;;;1.20;1.10;;;;;;;;;;5115153;28;20234;-56
2022/04/11 04:55:29;;;;;;;1.33;1.10;;;;;;;;;;5115387;28;20214;-56
2022/04/11 04:57:56;;;;;;;1.23;1.13;;;;;;;;;;5115911;28;20218;-56
2022/04/11 05:00:24;;;;;;;1.25;1.15;;;;;;;;;;5115773;28;20239;-56
2022/04/11 05:02:53;;;;;;;1.27;1.17;;;;;;;;;;5112569;28;20195;-57
2022/04/11 05:05:20;;;;;;;1.38;1.27;;;;;;;;;;5113985;28;20205;-57
2022/04/11 05:07:49;;;;;;;1.10;1.10;;;;;;;;;;5112242;28;20207;-56
2022/04/11 05:10:16;;;;;;;1.45;1.30;;;;;;;;;;5113798;28;20199;-56
2022/04/11 05:12:44;;;;;;;1.30;1.20;;;;;;;;;;5097208;28;20230;-57
2022/04/11 05:15:12;;;;;;;1.40;1.30;;;;;;;;;;5095158;28;20200;-56
2022/04/11 05:17:40;;;;;;;1.90;1.40;;;;;;;;;;5096343;28;20191;-56
2022/04/11 05:20:09;;;;;;;1.15;0.98;;;;;;;;;;5107550;28;20195;-55
2022/04/11 05:22:36;;;;;;;1.40;1.30;;;;;;;;;;5097271;28;20195;-54
2022/04/11 05:25:05;;;;;;;1.35;1.25;;;;;;;;;;5094473;28;20200;-55
2022/04/11 05:27:32;;;;;;;1.35;1.25;;;;;;;;;;5095340;28;20217;-55
2022/04/11 05:30:00;;;;;;;1.50;1.40;;;;;;;;;;5094407;28;20438;-55
2022/04/11 05:32:27;;;;;;;1.48;1.38;;;;;;;;;;5094377;28;20223;-55
2022/04/11 05:34:56;;;;;;;1.45;1.35;;;;;;;;;;5095182;28;20210;-55
2022/04/11 05:37:24;;;;;;;1.73;1.40;;;;;;;;;;5097948;28;20239;-55
2022/04/11 05:39:52;;;;;;;1.50;1.40;;;;;;;;;;5110003;28;20247;-55
2022/04/11 05:42:21;;;;;;;1.52;1.42;;;;;;;;;;5099081;28;20217;-55
2022/04/11 05:44:48;;;;;;;3.80;1.40;;;;;;;;;;5113809;28;20234;-55
2022/04/11 05:47:15;;;;;;;1.52;1.42;;;;;;;;;;5094111;28;20196;-55
2022/04/11 05:49:43;;;;;;;1.50;1.40;;;;;;;;;;5100979;28;20195;-55
2022/04/11 05:52:10;;;;;;;1.50;1.40;;;;;;;;;;5107252;28;20215;-55
2022/04/11 05:54:39;;;;;;;1.60;1.50;;;;;;;;;;5093576;28;20196;-55
2022/04/11 05:57:06;;;;;;;1.50;1.40;;;;;;;;;;5093912;28;20204;-55
2022/04/11 05:59:35;;;;;;;1.40;1.30;;;;;;;;;;5097372;28;20205;-55
2022/04/11 06:02:03;;;;;;;1.40;1.30;;;;;;;;;;5094936;28;20210;-55
2022/04/11 06:04:30;;;;;;;1.40;1.30;;;;;;;;;;5094000;28;20669;-55
2022/04/11 06:06:57;;;;;;;2.90;2.70;;;;;;;;;;5093580;28;20191;-55
2022/04/11 06:09:25;;;;;;;3.47;3.03;;;;;;;;;;5093570;28;20227;-57
2022/04/11 06:11:52;;;;;;;2.60;2.40;;;;;;;;;;5094124;28;20200;-56
2022/04/11 06:14:20;;;;;;;2.45;2.25;;;;;;;;;;5093813;28;20214;-56
2022/04/11 06:16:48;;;;;;;2.58;2.38;;;;;;;;;;5093874;28;20203;-56
2022/04/11 06:19:17;;;;;;;2.95;2.25;;;;;;;;;;5094623;28;20489;-56
2022/04/11 06:21:44;;;;;;;2.60;2.40;;;;;;;;;;5094291;28;20195;-56
2022/04/11 06:24:12;;;;;;;2.30;2.20;;;;;;;;;;5094553;28;20286;-57
2022/04/11 06:26:39;;;;;;;2.72;2.53;;;;;;;;;;5094345;28;20225;-57
2022/04/11 06:29:06;;;;;;;2.45;2.25;;;;;;;;;;5093227;28;20207;-57
2022/04/11 06:31:34;;;;;;;2.50;2.30;;;;;;;;;;5093754;28;20474;-57
2022/04/11 06:34:03;;;;;;;2.90;2.33;;;;;;;;;;5105531;28;20230;-56
2022/04/11 06:36:30;;;;;;;5.85;5.18;;;;;;;;;;5113071;28;20191;-57
2022/04/11 06:38:58;;;;;;;10.80;8.20;;;;;;;;;;5099140;28;20245;-57
2022/04/11 06:41:25;;;;;;;10.82;9.10;;;;;;;;;;5110642;28;20205;-58
2022/04/11 06:43:53;;;;;;;10.60;8.88;;;;;;;;;;5110149;28;20198;-56
2022/04/11 06:46:20;;;;;;;11.35;8.88;;;;;;;;;;5106209;28;20226;-56
2022/04/11 06:48:47;;;;;;;10.20;8.23;;;;;;;;;;5116914;28;20225;-56
2022/04/11 06:51:16;;;;;;;9.20;8.00;;;;;;;;;;5116011;28;20620;-56
2022/04/11 06:53:44;;;;;;;8.40;7.50;;;;;;;;;;5117297;28;20465;-56
2022/04/11 06:56:11;;;;;;;9.75;7.18;;;;;;;;;;5117885;28;20818;-57
2022/04/11 06:58:38;;;;;;;10.32;6.70;;;;;;;;;;5118523;28;20222;-56
2022/04/11 07:01:06;;;;;;;7.97;6.65;;;;;;;;;;5114790;28;20238;-56
2022/04/11 07:03:33;;;;;;;7.82;6.30;;;;;;;;;;5118149;28;20203;-56
2022/04/11 07:06:01;;;;;;;9.52;6.22;;;;;;;;;;5117612;28;20294;-56
2022/04/11 07:08:29;;;;;;;6.82;5.68;;;;;;;;;;5104583;28;20206;-56
2022/04/11 07:10:58;;;;;;;6.40;5.78;;;;;;;;;;5098522;28;20210;-56
2022/04/11 07:13:26;;;;;;;8.00;5.97;;;;;;;;;;5096154;28;20227;-56
2022/04/11 07:15:53;;;;;;;6.25;5.18;;;;;;;;;;5097610;28;20268;-56
2022/04/11 07:18:21;;;;;;;9.00;5.72;;;;;;;;;;5116924;28;20203;-56
2022/04/11 07:20:48;;;;;;;6.80;5.38;;;;;;;;;;5114591;28;20290;-57
2022/04/11 07:23:16;;;;;;;7.00;5.03;;;;;;;;;;5096886;28;20242;-56
2022/04/11 07:25:47;;;;;;;6.05;5.32;;;;;;;;;;5109264;28;20210;-56
2022/04/11 07:28:14;;;;;;;7.63;4.93;;;;;;;;;;5097037;28;20314;-56
2022/04/11 07:30:41;;;;;;;5.43;4.65;;;;;;;;;;5096610;28;20188;-56
2022/04/11 07:33:10;;;;;;;5.72;4.60;;;;;;;;;;5097520;28;20219;-56
2022/04/11 07:35:37;;;;;;;5.53;4.60;;;;;;;;;;5097067;28;20195;-56
2022/04/11 07:38:05;;;;;;;4.47;4.07;;;;;;;;;;5096544;28;20195;-57
2022/04/11 07:40:32;;;;;;;4.32;3.88;;;;;;;;;;5099134;28;20191;-56
2022/04/11 07:43:01;;;;;;;6.25;4.65;;;;;;;;;;5116174;28;20407;-56
2022/04/11 07:45:28;;;;;;;5.07;4.13;;;;;;;;;;5099123;28;20228;-56
2022/04/11 07:47:56;;;;;;;6.85;4.55;;;;;;;;;;5096866;28;20206;-56
2022/04/11 07:50:23;;;;;;;4.80;3.90;;;;;;;;;;5093675;28;20214;-56
2022/04/11 07:52:50;;;;;;;4.38;3.97;;;;;;;;;;5095617;28;20224;-56
2022/04/11 07:55:18;;;;;;;4.30;3.85;;;;;;;;;;5095399;28;20200;-56
2022/04/11 07:57:45;;;;;;;4.30;3.50;;;;;;;;;;5095441;28;20269;-56
2022/04/11 08:00:15;;;;;;;4.13;3.67;;;;;;;;;;5103594;28;20203;-56
2022/04/11 08:02:43;;;;;;;5.80;3.97;;;;;;;;;;5098113;28;20285;-57
2022/04/11 08:05:10;;;;;;;4.00;3.22;;;;;;;;;;5095270;28;20188;-56
2022/04/11 08:07:38;;;;;;;3.80;3.50;;;;;;;;;;5096920;28;20210;-56
2022/04/11 08:10:06;;;;;;;4.03;3.45;;;;;;;;;;5095262;28;20587;-56
2022/04/11 08:12:34;;;;;;;5.25;3.28;;;;;;;;;;5096215;28;20204;-56
2022/04/11 08:15:02;;;;;;;4.40;3.58;;;;;;;;;;5095954;28;20206;-56
2022/04/11 08:17:31;;;;;;;3.42;3.13;;;;;;;;;;5095352;28;20202;-56
2022/04/11 08:19:58;;;;;;;3.55;3.22;;;;;;;;;;5097054;28;20226;-56
2022/04/11 08:22:26;;;;;;;13.77;9.65;;;;;;;;;;5096461;28;20196;-57
2022/04/11 08:24:53;;;;;;;14.73;8.88;;;;;;;;;;5095411;28;20376;-56
2022/04/11 08:27:21;;;;;;;12.80;9.75;;;;;;;;;;5095068;28;20296;-56
2022/04/11 08:29:48;;;;;;;12.30;8.73;;;;;;;;;;5093741;28;20195;-58
2022/04/11 08:32:17;;;;;;;9.90;8.20;;;;;;;;;;5094048;28;20204;-57
2022/04/11 08:34:46;;;;;;;10.13;7.53;;;;;;;;;;5095822;28;20509;-56
2022/04/11 08:37:14;;;;;;;8.85;6.88;;;;;;;;;;5095678;28;20203;-56
2022/04/11 08:39:41;;;;;;;9.20;6.90;;;;;;;;;;5096489;28;20245;-56
2022/04/11 08:42:09;;;;;;;8.75;6.15;;;;;;;;;;5115642;28;20206;-57
2022/04/11 08:44:37;;;;;;;8.57;6.30;;;;;;;;;;5114611;28;20498;-57
2022/04/11 08:47:06;;;;;;;8.13;5.72;;;;;;;;;;5113526;28;20200;-56
2022/04/11 08:49:34;;;;;;;7.50;5.45;;;;;;;;;;5095219;28;20196;-57
2022/04/11 08:52:03;;;;;;;8.32;6.00;;;;;;;;;;5094887;28;20570;-56
2022/04/11 08:54:31;;;;;;;6.45;5.00;;;;;;;;;;5099200;28;20219;-56
2022/04/11 08:56:58;;;;;;;5.43;4.25;;;;;;;;;;5115002;28;20194;-56
2022/04/11 08:59:26;;;;;;;5.40;4.68;;;;;;;;;;5110752;28;20196;-56
2022/04/11 09:01:53;;;;;;;5.63;4.70;;;;;;;;;;5094681;28;20206;-57
2022/04/11 09:04:21;;;;;;;6.18;4.80;;;;;;;;;;5095086;28;20299;-56
2022/04/11 09:06:56;;;;;;;4.95;4.10;;;;;;;;;;5095019;28;20192;-57
2022/04/11 09:09:38;;;;;;;4.40;3.53;;;;;;;;;;5097753;28;20585;-56
2022/04/11 09:12:05;;;;;;;5.40;3.88;;;;;;;;;;5094675;28;20200;-57
2022/04/11 09:14:35;;;;;;;4.53;3.88;;;;;;;;;;5094445;28;20227;-57
2022/04/11 09:17:02;;;;;;;4.82;3.72;;;;;;;;;;5095585;28;20288;-56
2022/04/11 09:19:31;;;;;;;3.83;3.35;;;;;;;;;;5094382;28;20202;-57
2022/04/11 09:22:00;;;;;;;4.13;3.25;;;;;;;;;;5098371;28;20206;-57
2022/04/11 09:24:30;;;;;;;3.90;3.15;;;;;;;;;;5109608;28;20572;-57
2022/04/11 09:26:59;;;;;;;4.45;3.40;;;;;;;;;;5095319;28;20203;-57
2022/04/11 09:29:27;;;;;;;3.78;3.10;;;;;;;;;;5096857;28;20499;-57
2022/04/11 09:31:55;;;;;;;3.22;2.90;;;;;;;;;;5113104;28;20203;-57
2022/04/11 09:34:24;;;;;;;5.53;3.65;;;;;;;;;;5113755;28;20257;-57
2022/04/11 09:36:53;;;;;;;7.13;6.35;;;;;;;;;;5113843;27;20297;-57
2022/04/11 09:39:22;;;;;;;9.88;8.73;;;;;;;;;;5097285;28;20188;-57
2022/04/11 09:41:50;;;;;;;9.30;8.02;;;;;;;;;;5111126;28;20207;-57
2022/04/11 09:44:22;;;;;;;8.90;7.32;;;;;;;;;;5110873;28;20200;-57
2022/04/11 09:46:51;;;;;;;8.75;7.43;;;;;;;;;;5092561;28;20227;-57
2022/04/11 09:49:20;;;;;;;8.20;6.35;;;;;;;;;;5092313;28;20640;-57
2022/04/11 09:52:07;;;;;;;6.32;5.72;;;;;;;;;;5093054;28;20199;-57
2022/04/11 09:54:35;;;;;;;7.40;6.47;;;;;;;;;;5094602;28;20318;-57
2022/04/11 09:57:03;;;;;;;6.93;5.97;;;;;;;;;;5093094;28;20276;-57
2022/04/11 09:59:33;;;;;;;6.60;5.90;;;;;;;;;;5099298;28;20294;-57
2022/04/11 10:02:00;;;;;;;14.25;10.32;;;;;;;;;;5085441;28;20509;-57
2022/04/11 10:04:28;;;;;;;77.43;53.22;;;;;;;;;;5072365;28;20200;-57
2022/04/11 10:06:56;;;;;;;88.63;60.45;;;;;;;;;;5082575;28;20193;-57
2022/04/11 10:09:24;;;;;;;86.45;61.63;;;;;;;;;;5075365;28;20208;-57
2022/04/11 10:11:52;;;;;;;83.68;59.33;;;;;;;;;;5074016;28;20204;-57
2022/04/11 10:14:25;;;;;;;79.55;55.72;;;;;;;;;;5074501;28;20712;-57
2022/04/11 10:16:56;;;;;;;71.07;51.20;;;;;;;;;;5076203;28;20492;-57
2022/04/11 10:19:24;;;;;;;67.97;48.88;;;;;;;;;;5095250;28;20221;-58
2022/04/11 10:21:52;;;;;;;66.43;48.05;;;;;;;;;;5086025;28;20208;-57
2022/04/11 10:24:25;;;;;;;57.97;43.50;;;;;;;;;;5097795;28;20267;-57
2022/04/11 10:26:55;;;;;;;61.20;44.80;;;;;;;;;;5108742;28;20208;-57
2022/04/11 10:29:33;;;;;;;59.45;43.47;;;;;;;;;;5092151;28;20614;-57
2022/04/11 10:32:09;;;;;;;56.13;40.72;;;;;;;;;;5092332;28;20199;-57
2022/04/11 10:34:47;;;;;;;52.20;37.92;;;;;;;;;;5092010;28;20775;-57
2022/04/11 10:37:14;;;;;;;49.15;36.63;;;;;;;;;;5092671;28;20195;-57
2022/04/11 10:39:43;;;;;;;49.75;35.85;;;;;;;;;;5106644;28;20290;-57
2022/04/11 10:42:12;;;;;;;47.38;36.22;;;;;;;;;;5091971;28;20256;-57
2022/04/11 10:44:40;;;;;;;51.80;41.28;;;;;;;;;;5097651;28;20183;-56
2022/04/11 10:47:26;;;;;;;46.65;38.17;;;;;;;;;;5098300;28;20702;-57
2022/04/11 10:50:17;;;;;;;46.25;37.05;;;;;;;;;;5090645;28;20324;-58
2022/04/11 10:52:45;;;;;;;46.50;36.30;;;;;;;;;;5081139;28;20231;-57
2022/04/11 10:55:14;;;;;;;42.03;34.03;;;;;;;;;;5092072;28;20220;-56
2022/04/11 10:57:43;;;;;;;39.40;32.97;;;;;;;;;;5102296;28;20223;-56
2022/04/11 11:00:11;;;;;;;37.20;30.77;;;;;;;;;;5111330;28;20214;-57
2022/04/11 11:02:59;;;;;;;37.53;30.83;;;;;;;;;;5109372;28;20225;-56
2022/04/11 11:05:29;;;;;;;35.10;29.88;;;;;;;;;;5110987;28;20317;-57
2022/04/11 11:08:11;;;;;;;35.38;29.25;;;;;;;;;;5110257;28;20199;-57
2022/04/11 11:10:42;;;;;;;36.45;29.50;;;;;;;;;;5094059;28;20253;-57
2022/04/11 11:13:26;;;;;;;31.83;27.27;;;;;;;;;;5090684;28;20196;-56
2022/04/11 11:15:54;;;;;;;31.13;25.63;;;;;;;;;;5091879;28;20257;-56
2022/04/11 11:18:21;;;;;;;29.27;24.60;;;;;;;;;;5092467;28;20203;-56
2022/04/11 11:20:54;;;;;;;28.45;23.77;;;;;;;;;;5108872;28;20197;-58
2022/04/11 11:23:27;;;;;;;27.50;23.25;;;;;;;;;;5110257;28;20226;-56
2022/04/11 11:25:58;;;;;;;25.55;21.77;;;;;;;;;;5112564;28;20601;-58
2022/04/11 11:28:29;;;;;;;25.48;21.60;;;;;;;;;;5096493;28;20207;-56
2022/04/11 11:30:57;;;;;;;24.83;21.42;;;;;;;;;;5111528;28;20199;-56
2022/04/11 11:33:27;;;;;;;24.30;21.00;;;;;;;;;;5113481;28;20199;-56
2022/04/11 11:35:56;;;;;;;22.48;19.45;;;;;;;;;;5115416;28;20199;-57
2022/04/11 11:38:25;;;;;;;23.13;19.55;;;;;;;;;;5104818;28;20199;-57
2022/04/11 11:40:56;;;;;;;21.48;17.65;;;;;;;;;;5107107;28;20206;-57
2022/04/11 11:43:24;;;;;;;20.33;18.13;;;;;;;;;;5115106;28;20612;-56
2022/04/11 11:45:52;;;;;;;20.02;16.73;;;;;;;;;;5114058;28;20429;-56
2022/04/11 11:48:26;;;;;;;18.98;16.98;;;;;;;;;;5115137;28;20575;-57
2022/04/11 11:50:56;;;;;;;18.73;15.93;;;;;;;;;;5114151;28;20499;-57
2022/04/11 11:53:25;;;;;;;17.30;15.43;;;;;;;;;;5114259;28;20207;-56
2022/04/11 11:55:53;;;;;;;17.25;15.32;;;;;;;;;;5113988;28;20223;-56
2022/04/11 11:58:21;;;;;;;18.02;15.05;;;;;;;;;;5114927;28;20203;-57
2022/04/11 12:00:48;;;;;;;16.98;14.52;;;;;;;;;;5102985;28;20187;-56
2022/04/11 12:06:01;;;;;;;15.88;13.80;;;;;;;;;;5092378;28;20203;-56
2022/04/11 12:08:32;;;;;;;15.45;13.02;;;;;;;;;;5092571;28;20308;-56
2022/04/11 12:11:00;;;;;;;15.15;12.55;;;;;;;;;;5092789;28;20567;-56
2022/04/11 12:13:29;;;;;;;13.85;12.35;;;;;;;;;;5093193;28;20425;-56
2022/04/11 12:16:07;;;;;;;16.00;12.75;;;;;;;;;;5094310;28;20227;-56
2022/04/11 12:18:48;;;;;;;14.38;11.75;;;;;;;;;;5093979;28;20251;-57
2022/04/11 12:21:16;;;;;;;13.98;11.63;;;;;;;;;;5093599;28;20647;-57
2022/04/11 12:23:48;;;;;;;12.95;10.68;;;;;;;;;;5092654;28;20268;-57
2022/04/11 12:26:26;;;;;;;13.30;10.85;;;;;;;;;;5091919;28;20239;-57
2022/04/11 12:28:53;;;;;;;13.00;11.05;;;;;;;;;;5092965;28;20486;-57
2022/04/11 12:31:22;;;;;;;12.80;10.57;;;;;;;;;;5101740;28;20205;-57
2022/04/11 12:33:50;;;;;;;11.48;10.27;;;;;;;;;;5101028;28;20583;-57
2022/04/11 12:36:19;;;;;;;12.25;9.80;;;;;;;;;;5089853;28;20211;-57
2022/04/11 12:38:49;;;;;;;11.98;10.00;;;;;;;;;;5104976;28;20673;-57
2022/04/11 12:41:27;;;;;;;11.20;9.48;;;;;;;;;;5096105;28;20674;-56
2022/04/11 12:44:07;;;;;;;10.55;9.32;;;;;;;;;;5092450;28;20609;-57
2022/04/11 12:46:34;;;;;;;10.90;8.60;;;;;;;;;;5070076;28;20247;-57
2022/04/11 12:49:02;;;;;;;11.00;8.48;;;;;;;;;;5084394;28;20214;-57
2022/04/11 12:51:29;;;;;;;10.65;8.00;;;;;;;;;;5093821;28;20204;-57
2022/04/11 12:54:08;;;;;;;10.30;8.07;;;;;;;;;;5092599;28;20203;-57
2022/04/11 12:56:40;;;;;;;9.18;8.05;;;;;;;;;;5093088;28;20274;-57
2022/04/11 12:59:07;;;;;;;8.38;7.32;;;;;;;;;;5091551;28;20196;-57
2022/04/11 13:01:55;;;;;;;9.90;7.55;;;;;;;;;;5091478;28;20203;-57
2022/04/11 13:04:22;;;;;;;9.82;7.82;;;;;;;;;;5100504;28;20190;-56
2022/04/11 13:06:50;;;;;;;8.40;7.13;;;;;;;;;;5112472;28;20203;-57
2022/04/11 13:09:19;;;;;;;8.25;6.82;;;;;;;;;;5094434;28;20575;-57
2022/04/11 13:11:47;;;;;;;7.95;6.40;;;;;;;;;;5091103;28;20196;-57
2022/04/11 13:14:15;;;;;;;7.55;6.05;;;;;;;;;;5091118;28;20228;-57
2022/04/11 13:19:27;;;;;;;7.07;6.25;;;;;;;;;;5091255;28;20350;-57
2022/04/11 13:21:55;;;;;;;7.10;6.18;;;;;;;;;;5097860;28;20460;-56
2022/04/11 13:24:24;;;;;;;6.78;5.50;;;;;;;;;;5112313;28;20219;-57
2022/04/11 13:26:51;;;;;;;7.03;5.85;;;;;;;;;;5109338;28;20204;-57
2022/04/11 13:29:19;;;;;;;6.35;5.15;;;;;;;;;;5092630;28;20650;-57
2022/04/11 13:31:46;;;;;;;6.53;5.57;;;;;;;;;;5091560;28;20222;-57
2022/04/11 13:34:14;;;;;;;6.25;5.40;;;;;;;;;;5091456;28;20478;-56
2022/04/11 13:36:41;;;;;;;6.20;5.28;;;;;;;;;;5090796;28;20587;-57
2022/04/11 13:39:09;;;;;;;5.68;5.03;;;;;;;;;;5105232;28;20200;-57
2022/04/11 13:41:38;;;;;;;6.60;5.03;;;;;;;;;;5093709;28;20480;-57
2022/04/11 13:44:05;;;;;;;5.70;4.78;;;;;;;;;;5092908;28;20196;-57
2022/04/11 13:46:33;;;;;;;5.57;4.78;;;;;;;;;;5111587;28;20622;-57
2022/04/11 13:49:00;;;;;;;7.03;5.00;;;;;;;;;;5108893;28;20226;-57
2022/04/11 13:51:27;;;;;;;5.28;4.50;;;;;;;;;;5091243;28;20463;-57
2022/04/11 13:53:56;;;;;;;4.97;4.47;;;;;;;;;;5109711;28;20203;-57
2022/04/11 13:56:23;;;;;;;4.80;4.18;;;;;;;;;;5093684;28;20625;-57
2022/04/11 13:58:52;;;;;;;4.57;3.92;;;;;;;;;;5103264;28;20203;-57
2022/04/11 14:01:19;;;;;;;4.53;3.95;;;;;;;;;;5091026;28;20607;-56
2022/04/11 14:03:47;;;;;;;5.05;4.28;;;;;;;;;;5091189;28;20200;-57
2022/04/11 14:06:14;;;;;;;5.47;4.38;;;;;;;;;;5090111;28;20632;-57
2022/04/11 14:08:42;;;;;;;5.00;3.90;;;;;;;;;;5092506;28;20219;-57
2022/04/11 14:11:10;;;;;;;4.22;3.60;;;;;;;;;;5090942;28;20208;-57
2022/04/11 14:13:39;;;;;;;4.63;3.75;;;;;;;;;;5085697;28;20204;-57
2022/04/11 14:16:08;;;;;;;4.32;3.50;;;;;;;;;;5085239;28;20322;-56
2022/04/11 14:18:35;;;;;;;3.78;3.30;;;;;;;;;;5089441;28;20214;-57
2022/04/11 14:21:02;;;;;;;4.18;3.55;;;;;;;;;;5090891;28;20202;-56
2022/04/11 14:23:31;;;;;;;3.53;3.00;;;;;;;;;;5091684;28;20355;-56
2022/04/11 14:25:59;;;;;;;3.13;2.83;;;;;;;;;;5090204;28;20203;-57
2022/04/11 14:28:26;;;;;;;3.38;2.85;;;;;;;;;;5104972;28;20479;-57
2022/04/11 14:30:53;;;;;;;3.20;2.90;;;;;;;;;;5096320;28;20506;-57
2022/04/11 14:33:22;;;;;;;3.20;2.90;;;;;;;;;;5090958;28;20500;-57
2022/04/11 14:35:50;;;;;;;3.20;2.90;;;;;;;;;;5089249;28;20216;-57
2022/04/11 14:38:17;;;;;;;3.17;2.72;;;;;;;;;;5099094;28;20698;-57
2022/04/11 14:40:45;;;;;;;3.47;2.70;;;;;;;;;;5097800;28;20606;-57
2022/04/11 14:43:13;;;;;;;3.80;3.10;;;;;;;;;;5091714;28;20199;-57
2022/04/11 14:45:41;;;;;;;3.03;2.72;;;;;;;;;;5106536;28;20235;-56
2022/04/11 14:48:09;;;;;;;2.85;2.53;;;;;;;;;;5111100;28;20457;-57
2022/04/11 14:50:38;;;;;;;2.67;2.20;;;;;;;;;;5111016;28;20199;-57
2022/04/11 14:53:06;;;;;;;3.00;2.70;;;;;;;;;;5110711;28;20210;-57